createdAt,value
2023-05-12T00:00:38.781Z,198.80
2023-05-12T00:01:38.910Z,212.30
2023-05-12T00:02:38.900Z,202.60
2023-05-12T00:03:38.850Z,206.90
2023-05-12T00:04:38.851Z,206.70
2023-05-12T00:05:38.726Z,198.60
2023-05-12T00:06:38.800Z,190.20
2023-05-12T00:07:38.916Z,187.80
2023-05-12T00:08:38.834Z,192.60
2023-05-12T00:09:39.065Z,207.60
2023-05-12T00:10:38.691Z,183.30
2023-05-12T00:11:38.719Z,193.30
2023-05-12T00:12:38.671Z,210.10
2023-05-12T00:13:38.819Z,211.60
2023-05-12T00:14:38.790Z,216.70
2023-05-12T00:15:38.741Z,224.70
2023-05-12T00:16:38.659Z,215.10
2023-05-12T00:17:40.365Z,233.20
2023-05-12T00:18:38.772Z,242.40
2023-05-12T00:19:38.827Z,247.40
2023-05-12T00:20:38.707Z,232.40
2023-05-12T00:21:38.686Z,251.70
2023-05-12T00:22:39.650Z,225.90
2023-05-12T00:23:39.375Z,239.80
2023-05-12T00:24:38.659Z,239.00
2023-05-12T00:25:38.882Z,246.00
2023-05-12T00:26:38.667Z,229.50
2023-05-12T00:27:38.570Z,254.20
2023-05-12T00:28:38.853Z,238.50
2023-05-12T00:29:39.498Z,235.30
2023-05-12T00:30:38.703Z,216.60
2023-05-12T00:31:38.545Z,214.60
2023-05-12T00:32:38.576Z,215.80
2023-05-12T00:33:38.552Z,197.80
2023-05-12T00:34:38.989Z,207.50
2023-05-12T00:35:38.485Z,203.90
2023-05-12T00:36:38.631Z,209.60
2023-05-12T00:37:39.498Z,230.70
2023-05-12T00:38:38.498Z,199.30
2023-05-12T00:39:38.471Z,194.40
2023-05-12T00:40:38.524Z,200.10
2023-05-12T00:41:38.697Z,206.50
2023-05-12T00:42:38.511Z,192.20
2023-05-12T00:43:38.667Z,190.30
2023-05-12T00:44:38.495Z,189.80
2023-05-12T00:45:38.450Z,209.60
2023-05-12T00:46:38.682Z,194.40
2023-05-12T00:47:38.458Z,195.20
2023-05-12T00:48:38.365Z,201.10
2023-05-12T00:49:38.287Z,182.60
2023-05-12T00:50:38.277Z,203.10
2023-05-12T00:51:38.272Z,197.60
2023-05-12T00:52:38.456Z,195.90
2023-05-12T00:53:48.546Z,207.30
2023-05-12T00:54:38.328Z,189.00
2023-05-12T00:55:39.228Z,179.40
2023-05-12T00:56:38.187Z,206.60
2023-05-12T00:57:38.219Z,201.80
2023-05-12T00:58:38.226Z,208.10
2023-05-12T00:59:39.059Z,189.60
2023-05-12T01:00:38.295Z,221.10
2023-05-12T01:01:38.506Z,212.90
2023-05-12T01:02:38.255Z,208.10
2023-05-12T01:03:38.251Z,214.40
2023-05-12T01:04:39.246Z,250.50
2023-05-12T01:05:38.118Z,222.20
2023-05-12T01:06:38.066Z,221.50
2023-05-12T01:07:38.036Z,216.30
2023-05-12T01:08:38.077Z,212.70
2023-05-12T01:09:38.063Z,218.40
2023-05-12T01:10:38.033Z,218.70
2023-05-12T01:11:38.025Z,226.40
2023-05-12T01:12:37.981Z,228.50
2023-05-12T01:13:37.990Z,222.20
2023-05-12T01:14:38.041Z,222.70
2023-05-12T01:15:38.004Z,217.30
2023-05-12T01:16:37.935Z,219.50
2023-05-12T01:17:38.101Z,229.70
2023-05-12T01:18:37.924Z,254.20
2023-05-12T01:19:37.956Z,250.20
2023-05-12T01:20:37.913Z,266.20
2023-05-12T01:21:37.966Z,289.20
2023-05-12T01:22:37.876Z,298.30
2023-05-12T01:23:37.950Z,484.70
2023-05-12T01:24:37.980Z,460.00
2023-05-12T01:25:37.953Z,419.90
2023-05-12T01:26:37.866Z,410.90
2023-05-12T01:27:39.560Z,365.30
2023-05-12T01:28:38.112Z,472.40
2023-05-12T01:29:37.827Z,304.10
2023-05-12T01:30:38.621Z,436.40
2023-05-12T01:31:38.037Z,324.60
2023-05-12T01:32:37.808Z,301.40
2023-05-12T01:33:37.805Z,262.00
2023-05-12T01:34:38.341Z,248.70
2023-05-12T01:35:37.738Z,187.20
2023-05-12T01:36:37.767Z,146.80
2023-05-12T01:37:37.812Z,146.30
2023-05-12T01:38:38.468Z,152.00
2023-05-12T01:39:37.994Z,147.70
2023-05-12T01:40:37.884Z,160.80
2023-05-12T01:41:37.897Z,136.40
2023-05-12T01:42:38.041Z,143.40
2023-05-12T01:43:37.970Z,156.90
2023-05-12T01:44:38.013Z,137.10
2023-05-12T01:45:37.756Z,146.00
2023-05-12T01:46:37.916Z,155.30
2023-05-12T01:47:37.872Z,155.50
2023-05-12T01:48:37.838Z,152.10
2023-05-12T01:49:38.070Z,165.70
2023-05-12T01:50:37.783Z,165.40
2023-05-12T01:51:37.886Z,158.10
2023-05-12T01:52:37.774Z,165.30
2023-05-12T01:53:37.820Z,151.50
2023-05-12T01:54:37.672Z,163.90
2023-05-12T01:55:37.632Z,168.10
2023-05-12T01:56:38.482Z,162.30
2023-05-12T01:57:38.511Z,173.60
2023-05-12T01:58:37.629Z,166.70
2023-05-12T01:59:37.531Z,170.50
2023-05-12T02:00:37.844Z,174.50
2023-05-12T02:01:39.035Z,182.00
2023-05-12T02:02:37.832Z,162.60
2023-05-12T02:03:37.778Z,166.60
2023-05-12T02:04:37.505Z,159.00
2023-05-12T02:05:37.918Z,157.10
2023-05-12T02:06:38.157Z,162.70
2023-05-12T02:07:37.667Z,159.50
2023-05-12T02:08:37.516Z,159.50
2023-05-12T02:09:37.977Z,154.80
2023-05-12T02:10:37.575Z,153.20
2023-05-12T02:11:37.842Z,139.10
2023-05-12T02:12:37.481Z,141.20
2023-05-12T02:13:37.473Z,147.00
2023-05-12T02:14:38.349Z,135.10
2023-05-12T02:15:38.505Z,123.60
2023-05-12T02:16:37.546Z,115.80
2023-05-12T02:17:37.410Z,130.50
2023-05-12T02:18:37.457Z,124.70
2023-05-12T02:19:38.158Z,134.10
2023-05-12T02:20:38.083Z,126.90
2023-05-12T02:21:37.447Z,141.70
2023-05-12T02:22:38.173Z,146.10
2023-05-12T02:23:37.313Z,142.60
2023-05-12T02:24:37.309Z,144.20
2023-05-12T02:25:37.451Z,146.90
2023-05-12T02:26:37.276Z,139.20
2023-05-12T02:27:37.363Z,142.60
2023-05-12T02:28:37.278Z,137.70
2023-05-12T02:29:37.370Z,137.20
2023-05-12T02:30:38.107Z,133.60
2023-05-12T02:31:37.261Z,132.10
2023-05-12T02:32:37.466Z,132.80
2023-05-12T02:33:37.415Z,137.40
2023-05-12T02:34:37.900Z,132.90
2023-05-12T02:35:37.254Z,143.50
2023-05-12T02:36:37.236Z,151.90
2023-05-12T02:37:37.991Z,130.80
2023-05-12T02:38:37.323Z,133.30
2023-05-12T02:39:37.344Z,143.20
2023-05-12T02:40:37.209Z,127.30
2023-05-12T02:41:37.285Z,138.00
2023-05-12T02:42:37.177Z,139.60
2023-05-12T02:43:37.185Z,130.90
2023-05-12T02:44:37.168Z,135.00
2023-05-12T02:45:37.227Z,134.30
2023-05-12T02:46:37.081Z,119.80
2023-05-12T02:47:37.146Z,124.40
2023-05-12T02:48:37.029Z,126.20
2023-05-12T02:49:37.048Z,125.80
2023-05-12T02:50:37.018Z,130.50
2023-05-12T02:51:37.031Z,118.70
2023-05-12T02:52:37.061Z,131.10
2023-05-12T02:53:36.909Z,124.20
2023-05-12T02:54:36.898Z,124.70
2023-05-12T02:55:36.891Z,140.10
2023-05-12T02:56:36.867Z,128.10
2023-05-12T02:57:36.952Z,114.80
2023-05-12T02:58:36.908Z,118.80
2023-05-12T02:59:36.852Z,116.00
2023-05-12T03:00:36.837Z,123.90
2023-05-12T03:01:36.914Z,114.90
2023-05-12T03:02:36.904Z,147.70
2023-05-12T03:03:36.989Z,125.50
2023-05-12T03:04:36.798Z,132.90
2023-05-12T03:05:36.769Z,115.30
2023-05-12T03:06:36.786Z,125.40
2023-05-12T03:07:36.754Z,117.00
2023-05-12T03:08:36.754Z,117.30
2023-05-12T03:09:36.741Z,109.60
2023-05-12T03:10:36.767Z,113.40
2023-05-12T03:11:36.748Z,122.60
2023-05-12T03:12:36.700Z,111.60
2023-05-12T03:13:36.704Z,109.20
2023-05-12T03:14:36.704Z,119.00
2023-05-12T03:15:36.695Z,113.30
2023-05-12T03:16:36.691Z,123.10
2023-05-12T03:17:36.748Z,120.70
2023-05-12T03:18:36.693Z,114.10
2023-05-12T03:19:36.642Z,116.50
2023-05-12T03:20:36.625Z,116.70
2023-05-12T03:21:36.616Z,118.20
2023-05-12T03:22:36.595Z,121.20
2023-05-12T03:23:36.574Z,124.40
2023-05-12T03:24:36.617Z,123.60
2023-05-12T03:25:36.611Z,123.10
2023-05-12T03:26:36.562Z,104.30
2023-05-12T03:27:36.536Z,115.30
2023-05-12T03:28:36.520Z,111.40
2023-05-12T03:29:36.554Z,124.00
2023-05-12T03:30:36.524Z,115.40
2023-05-12T03:31:36.540Z,110.90
2023-05-12T03:32:36.592Z,106.40
2023-05-12T03:33:36.501Z,109.40
2023-05-12T03:34:36.483Z,104.00
2023-05-12T03:35:36.463Z,105.00
2023-05-12T03:36:36.424Z,104.00
2023-05-12T03:37:36.420Z,105.20
2023-05-12T03:38:36.492Z,114.40
2023-05-12T03:39:36.449Z,105.60
2023-05-12T03:40:36.413Z,117.00
2023-05-12T03:41:36.395Z,122.60
2023-05-12T03:42:36.382Z,106.30
2023-05-12T03:43:36.400Z,105.80
2023-05-12T03:44:36.396Z,110.60
2023-05-12T03:45:36.376Z,100.80
2023-05-12T03:46:36.388Z,109.00
2023-05-12T03:47:36.489Z,119.00
2023-05-12T03:48:36.357Z,112.20
2023-05-12T03:49:36.303Z,112.20
2023-05-12T03:50:36.341Z,110.90
2023-05-12T03:51:36.284Z,112.00
2023-05-12T03:52:36.324Z,112.80
2023-05-12T03:53:36.300Z,111.40
2023-05-12T03:54:37.817Z,126.40
2023-05-12T03:55:36.245Z,122.80
2023-05-12T03:56:36.254Z,122.80
2023-05-12T03:57:36.287Z,112.90
2023-05-12T03:58:36.210Z,111.40
2023-05-12T03:59:36.231Z,109.40
2023-05-12T04:00:36.196Z,115.50
2023-05-12T04:01:36.248Z,104.50
2023-05-12T04:02:36.471Z,116.30
2023-05-12T04:03:36.206Z,115.30
2023-05-12T04:04:36.151Z,120.60
2023-05-12T04:05:36.126Z,117.90
2023-05-12T04:06:36.171Z,108.50
2023-05-12T04:07:36.124Z,104.60
2023-05-12T04:08:36.139Z,112.10
2023-05-12T04:09:36.100Z,109.20
2023-05-12T04:10:36.089Z,107.10
2023-05-12T04:11:36.128Z,118.20
2023-05-12T04:12:36.076Z,106.30
2023-05-12T04:13:36.052Z,105.60
2023-05-12T04:14:42.961Z,107.70
2023-05-12T04:15:36.035Z,104.10
2023-05-12T04:16:36.144Z,102.60
2023-05-12T04:17:36.069Z,105.40
2023-05-12T04:18:36.132Z,108.40
2023-05-12T04:19:36.143Z,109.70
2023-05-12T04:20:36.554Z,112.90
2023-05-12T04:21:37.365Z,98.60
2023-05-12T04:22:38.497Z,111.10
2023-05-12T04:23:35.979Z,105.80
2023-05-12T04:24:35.941Z,114.60
2023-05-12T04:25:35.996Z,109.10
2023-05-12T04:26:36.037Z,107.40
2023-05-12T04:27:36.136Z,114.40
2023-05-12T04:28:35.916Z,102.80
2023-05-12T04:29:35.952Z,112.60
2023-05-12T04:30:35.929Z,122.20
2023-05-12T04:31:35.928Z,117.60
2023-05-12T04:32:35.883Z,109.50
2023-05-12T04:33:35.844Z,103.00
2023-05-12T04:34:35.870Z,106.30
2023-05-12T04:35:35.853Z,102.30
2023-05-12T04:36:35.806Z,115.90
2023-05-12T04:37:35.799Z,109.00
2023-05-12T04:38:35.789Z,103.40
2023-05-12T04:39:36.503Z,101.80
2023-05-12T04:40:35.797Z,109.90
2023-05-12T04:41:35.765Z,102.30
2023-05-12T04:42:35.744Z,107.80
2023-05-12T04:44:35.769Z,96.00
2023-05-12T04:45:35.725Z,105.30
2023-05-12T04:46:35.850Z,93.10
2023-05-12T04:47:35.753Z,105.50
2023-05-12T04:48:35.706Z,109.90
2023-05-12T04:49:35.714Z,108.80
2023-05-12T04:50:35.684Z,101.10
2023-05-12T04:51:35.660Z,100.10
2023-05-12T04:52:35.657Z,105.30
2023-05-12T04:53:35.660Z,102.10
2023-05-12T04:54:35.646Z,104.00
2023-05-12T04:55:42.601Z,105.40
2023-05-12T04:56:35.614Z,103.20
2023-05-12T04:57:35.601Z,101.80
2023-05-12T04:58:35.607Z,105.80
2023-05-12T04:59:35.604Z,101.10
2023-05-12T05:00:35.581Z,89.00
2023-05-12T05:01:35.702Z,97.70
2023-05-12T05:02:35.723Z,88.80
2023-05-12T05:03:35.677Z,92.20
2023-05-12T05:04:35.577Z,79.30
2023-05-12T05:05:35.507Z,83.40
2023-05-12T05:06:35.500Z,97.60
2023-05-12T05:07:35.513Z,86.20
2023-05-12T05:08:35.536Z,86.10
2023-05-12T05:09:36.597Z,94.00
2023-05-12T05:10:35.469Z,106.10
2023-05-12T05:11:35.469Z,104.30
2023-05-12T05:12:35.452Z,113.70
2023-05-12T05:13:35.430Z,116.90
2023-05-12T05:14:35.406Z,102.50
2023-05-12T05:15:35.422Z,99.70
2023-05-12T05:16:35.424Z,102.60
2023-05-12T05:17:35.540Z,117.10
2023-05-12T05:18:35.409Z,116.70
2023-05-12T05:19:49.854Z,110.00
2023-05-12T05:20:35.407Z,94.80
2023-05-12T05:21:35.357Z,115.40
2023-05-12T05:22:35.319Z,111.10
2023-05-12T05:23:35.322Z,110.40
2023-05-12T05:24:35.304Z,106.90
2023-05-12T05:25:35.291Z,124.30
2023-05-12T05:26:35.421Z,108.60
2023-05-12T05:27:35.326Z,106.00
2023-05-12T05:28:35.275Z,127.20
2023-05-12T05:29:35.251Z,110.30
2023-05-12T05:30:35.286Z,98.10
2023-05-12T05:31:35.263Z,100.70
2023-05-12T05:32:35.304Z,109.90
2023-05-12T05:33:35.210Z,92.50
2023-05-12T05:34:35.285Z,82.90
2023-05-12T05:35:35.229Z,74.80
2023-05-12T05:36:35.195Z,86.30
2023-05-12T05:37:35.167Z,79.90
2023-05-12T05:38:36.856Z,89.10
2023-05-12T05:39:35.130Z,80.50
2023-05-12T05:40:48.802Z,87.00
2023-05-12T05:41:35.322Z,94.40
2023-05-12T05:42:35.111Z,87.90
2023-05-12T05:43:35.101Z,92.40
2023-05-12T05:44:35.095Z,81.80
2023-05-12T05:45:35.120Z,91.20
2023-05-12T05:46:35.091Z,102.60
2023-05-12T05:47:35.064Z,99.00
2023-05-12T05:48:35.041Z,94.60
2023-05-12T05:49:35.054Z,94.90
2023-05-12T05:50:35.047Z,83.00
2023-05-12T05:51:35.026Z,90.10
2023-05-12T05:52:35.005Z,83.70
2023-05-12T05:53:34.984Z,72.10
2023-05-12T05:54:35.023Z,78.60
2023-05-12T05:55:34.964Z,83.00
2023-05-12T05:56:34.967Z,83.00
2023-05-12T05:57:34.959Z,81.70
2023-05-12T05:58:34.936Z,90.50
2023-05-12T05:59:34.994Z,93.70
2023-05-12T06:00:34.910Z,77.00
2023-05-12T06:01:34.906Z,74.10
2023-05-12T06:02:35.140Z,76.90
2023-05-12T06:03:35.053Z,76.30
2023-05-12T06:04:34.910Z,73.20
2023-05-12T06:05:34.850Z,78.80
2023-05-12T06:06:34.844Z,80.50
2023-05-12T06:07:34.858Z,71.60
2023-05-12T06:08:34.865Z,76.30
2023-05-12T06:09:34.818Z,81.40
2023-05-12T06:10:34.832Z,78.00
2023-05-12T06:11:34.791Z,82.90
2023-05-12T06:12:34.785Z,70.30
2023-05-12T06:13:34.768Z,70.00
2023-05-12T06:14:34.766Z,68.30
2023-05-12T06:15:34.776Z,65.50
2023-05-12T06:16:34.780Z,72.00
2023-05-12T06:17:34.800Z,73.40
2023-05-12T06:18:34.756Z,69.40
2023-05-12T06:19:34.724Z,55.50
2023-05-12T06:20:34.749Z,52.30
2023-05-12T06:21:34.688Z,51.50
2023-05-12T06:22:34.759Z,55.20
2023-05-12T06:23:34.690Z,60.70
2023-05-12T06:24:34.660Z,54.50
2023-05-12T06:25:34.650Z,44.40
2023-05-12T06:26:34.634Z,40.50
2023-05-12T06:27:34.657Z,47.70
2023-05-12T06:28:34.602Z,43.90
2023-05-12T06:29:34.622Z,42.60
2023-05-12T06:30:34.591Z,33.60
2023-05-12T06:31:34.637Z,40.80
2023-05-12T06:32:34.743Z,44.20
2023-05-12T06:33:34.564Z,47.00
2023-05-12T06:34:34.559Z,40.70
2023-05-12T06:35:34.533Z,39.10
2023-05-12T06:36:34.585Z,41.80
2023-05-12T06:37:34.544Z,37.90
2023-05-12T06:38:34.510Z,39.00
2023-05-12T06:39:34.483Z,37.40
2023-05-12T06:40:34.498Z,35.50
2023-05-12T06:41:34.524Z,33.50
2023-05-12T06:42:34.472Z,33.40
2023-05-12T06:43:34.457Z,31.60
2023-05-12T06:44:34.451Z,33.60
2023-05-12T06:45:34.432Z,28.10
2023-05-12T06:46:34.502Z,32.70
2023-05-12T06:47:34.423Z,33.60
2023-05-12T06:48:34.423Z,25.90
2023-05-12T06:49:34.392Z,29.20
2023-05-12T06:50:34.407Z,33.20
2023-05-12T06:51:34.402Z,30.70
2023-05-12T06:52:34.367Z,32.80
2023-05-12T06:53:34.347Z,32.10
2023-05-12T06:54:34.336Z,29.60
2023-05-12T06:55:34.398Z,26.10
2023-05-12T06:56:34.339Z,22.00
2023-05-12T06:57:34.304Z,23.10
2023-05-12T06:58:34.312Z,24.80
2023-05-12T06:59:34.340Z,25.60
2023-05-12T07:00:34.326Z,26.40
2023-05-12T07:01:34.309Z,22.40
2023-05-12T07:02:34.257Z,24.90
2023-05-12T07:03:34.303Z,25.80
2023-05-12T07:04:34.252Z,26.20
2023-05-12T07:05:34.272Z,25.10
2023-05-12T07:06:34.204Z,26.20
2023-05-12T07:07:34.196Z,22.30
2023-05-12T07:08:34.193Z,20.70
2023-05-12T07:09:34.234Z,22.20
2023-05-12T07:10:34.167Z,22.10
2023-05-12T07:11:34.155Z,18.40
2023-05-12T07:12:34.143Z,17.20
2023-05-12T07:13:34.128Z,15.20
2023-05-12T07:14:34.151Z,16.60
2023-05-12T07:15:34.135Z,18.00
2023-05-12T07:16:34.191Z,14.90
2023-05-12T07:17:34.153Z,17.30
2023-05-12T07:18:34.142Z,15.50
2023-05-12T07:19:34.154Z,15.10
2023-05-12T07:20:34.069Z,14.60
2023-05-12T07:21:34.054Z,15.60
2023-05-12T07:22:34.365Z,17.30
2023-05-12T07:23:34.046Z,14.60
2023-05-12T07:24:34.018Z,14.60
2023-05-12T07:25:34.035Z,12.60
2023-05-12T07:26:33.999Z,14.20
2023-05-12T07:27:33.978Z,13.70
2023-05-12T07:28:34.025Z,13.90
2023-05-12T07:29:33.955Z,14.20
2023-05-12T07:30:33.955Z,13.90
2023-05-12T07:31:34.047Z,16.00
2023-05-12T07:32:33.963Z,16.20
2023-05-12T07:33:33.942Z,14.50
2023-05-12T07:34:33.918Z,13.10
2023-05-12T07:35:33.892Z,14.40
2023-05-12T07:36:33.881Z,14.70
2023-05-12T07:37:33.921Z,14.00
2023-05-12T07:38:33.860Z,13.60
2023-05-12T07:39:33.880Z,12.00
2023-05-12T07:40:33.838Z,11.90
2023-05-12T07:41:34.613Z,12.50
2023-05-12T07:42:33.857Z,13.10
2023-05-12T07:43:33.811Z,11.00
2023-05-12T07:44:33.809Z,10.80
2023-05-12T07:45:33.794Z,11.00
2023-05-12T07:46:33.845Z,12.20
2023-05-12T07:47:33.822Z,10.90
2023-05-12T07:48:33.761Z,11.10
2023-05-12T07:49:33.759Z,10.80
2023-05-12T07:50:33.739Z,10.90
2023-05-12T07:51:33.761Z,11.10
2023-05-12T07:52:33.721Z,10.50
2023-05-12T07:53:33.712Z,11.20
2023-05-12T07:54:33.696Z,12.40
2023-05-12T07:55:33.705Z,11.60
2023-05-12T07:56:33.702Z,11.00
2023-05-12T07:57:33.671Z,10.20
2023-05-12T07:58:33.661Z,10.90
2023-05-12T07:59:33.658Z,10.70
2023-05-12T08:00:33.664Z,10.10
2023-05-12T08:01:33.696Z,10.50
2023-05-12T08:02:33.657Z,10.40
2023-05-12T08:03:33.695Z,10.70
2023-05-12T08:04:33.629Z,9.20
2023-05-12T08:05:33.674Z,10.10
2023-05-12T08:06:33.579Z,10.00
2023-05-12T08:07:33.620Z,11.30
2023-05-12T08:08:33.556Z,10.60
2023-05-12T08:09:33.543Z,10.10
2023-05-12T08:10:33.558Z,9.50
2023-05-12T08:11:33.544Z,10.50
2023-05-12T08:12:33.521Z,9.40
2023-05-12T08:13:33.541Z,10.10
2023-05-12T08:14:33.542Z,10.70
2023-05-12T08:15:33.549Z,10.20
2023-05-12T08:16:33.505Z,10.60
2023-05-12T08:17:33.475Z,12.00
2023-05-12T08:18:33.477Z,10.90
2023-05-12T08:19:33.495Z,13.20
2023-05-12T08:20:33.448Z,11.80
2023-05-12T08:21:33.432Z,10.90
2023-05-12T08:22:33.449Z,10.40
2023-05-12T08:23:33.448Z,10.40
2023-05-12T08:24:33.429Z,11.20
2023-05-12T08:25:33.400Z,11.20
2023-05-12T08:26:33.392Z,10.30
2023-05-12T08:27:33.350Z,11.60
2023-05-12T08:28:33.366Z,12.50
2023-05-12T08:29:33.370Z,10.40
2023-05-12T08:30:33.400Z,10.60
2023-05-12T08:31:33.443Z,11.50
2023-05-12T08:32:33.625Z,10.10
2023-05-12T08:33:33.348Z,10.30
2023-05-12T08:34:33.296Z,10.60
2023-05-12T08:35:33.277Z,11.00
2023-05-12T08:36:33.278Z,11.20
2023-05-12T08:37:34.803Z,10.70
2023-05-12T08:38:33.292Z,12.10
2023-05-12T08:39:33.243Z,11.80
2023-05-12T08:40:33.214Z,10.40
2023-05-12T08:41:33.216Z,11.60
2023-05-12T08:42:33.247Z,10.00
2023-05-12T08:43:33.258Z,10.60
2023-05-12T08:44:33.182Z,11.40
2023-05-12T08:45:33.184Z,11.40
2023-05-12T08:46:33.269Z,11.10
2023-05-12T08:47:33.217Z,11.20
2023-05-12T08:48:33.198Z,11.50
2023-05-12T08:49:33.136Z,10.60
2023-05-12T08:50:33.177Z,12.30
2023-05-12T08:51:33.126Z,10.80
2023-05-12T08:52:33.738Z,11.10
2023-05-12T08:53:33.095Z,11.40
2023-05-12T08:54:33.472Z,11.90
2023-05-12T08:55:34.358Z,11.00
2023-05-12T08:57:33.101Z,10.50
2023-05-12T08:58:40.830Z,11.50
2023-05-12T08:59:33.069Z,11.00
2023-05-12T09:00:33.080Z,10.80
2023-05-12T09:01:33.711Z,11.40
2023-05-12T09:02:44.562Z,11.60
2023-05-12T09:03:33.060Z,11.80
2023-05-12T09:04:33.012Z,11.30
2023-05-12T09:05:32.974Z,11.10
2023-05-12T09:06:33.022Z,10.60
2023-05-12T09:07:32.994Z,11.90
2023-05-12T09:08:32.941Z,11.50
2023-05-12T09:09:32.939Z,10.60
2023-05-12T09:10:35.468Z,11.00
2023-05-12T09:11:32.912Z,11.10
2023-05-12T09:12:34.626Z,10.00
2023-05-12T09:13:32.923Z,10.60
2023-05-12T09:14:32.878Z,11.20
2023-05-12T09:15:32.911Z,11.10
2023-05-12T09:16:33.007Z,10.40
2023-05-12T09:17:32.876Z,10.40
2023-05-12T09:18:32.870Z,10.20
2023-05-12T09:19:32.841Z,12.30
2023-05-12T09:20:33.064Z,10.50
2023-05-12T09:21:32.812Z,9.30
2023-05-12T09:22:32.813Z,10.40
2023-05-12T09:23:32.814Z,11.20
2023-05-12T09:24:32.820Z,10.70
2023-05-12T09:25:32.804Z,9.70
2023-05-12T09:26:32.778Z,10.30
2023-05-12T09:27:32.759Z,10.20
2023-05-12T09:28:32.763Z,10.20
2023-05-12T09:29:35.882Z,11.00
2023-05-12T09:30:32.739Z,10.90
2023-05-12T09:31:32.798Z,10.00
2023-05-12T09:32:32.761Z,11.40
2023-05-12T09:33:32.712Z,11.10
2023-05-12T09:34:32.722Z,12.20
2023-05-12T09:35:32.708Z,10.10
2023-05-12T09:36:32.677Z,11.00
2023-05-12T09:37:32.682Z,9.60
2023-05-12T09:38:32.696Z,10.50
2023-05-12T09:39:32.691Z,10.60
2023-05-12T09:40:32.653Z,10.70
2023-05-12T09:41:32.969Z,10.80
2023-05-12T09:42:32.638Z,10.90
2023-05-12T09:43:32.633Z,9.90
2023-05-12T09:44:32.602Z,10.80
2023-05-12T09:45:32.631Z,11.80
2023-05-12T09:46:32.820Z,9.80
2023-05-12T09:47:32.601Z,10.80
2023-05-12T09:48:32.597Z,11.40
2023-05-12T09:49:32.568Z,10.80
2023-05-12T09:50:40.932Z,11.60
2023-05-12T09:51:32.553Z,11.00
2023-05-12T09:52:32.538Z,11.00
2023-05-12T09:53:32.569Z,10.70
2023-05-12T09:54:32.517Z,9.60
2023-05-12T09:55:32.513Z,10.50
2023-05-12T09:56:32.523Z,10.70
2023-05-12T09:57:32.521Z,10.20
2023-05-12T09:58:32.502Z,10.40
2023-05-12T09:59:32.493Z,9.40
2023-05-12T10:00:46.158Z,10.00
2023-05-12T10:01:32.466Z,10.60
2023-05-12T10:02:32.557Z,10.20
2023-05-12T10:03:32.426Z,8.90
2023-05-12T10:04:32.536Z,10.40
2023-05-12T10:05:32.421Z,10.80
2023-05-12T10:06:32.404Z,10.50
2023-05-12T10:07:32.419Z,10.90
2023-05-12T10:08:32.394Z,13.10
2023-05-12T10:09:32.390Z,10.80
2023-05-12T10:10:32.373Z,11.50
2023-05-12T10:11:32.395Z,11.00
2023-05-12T10:12:32.371Z,12.30
2023-05-12T10:13:32.350Z,11.80
2023-05-12T10:14:32.339Z,10.90
2023-05-12T10:15:32.351Z,11.70
2023-05-12T10:16:32.409Z,10.20
2023-05-12T10:17:32.336Z,12.00
2023-05-12T10:18:32.332Z,15.40
2023-05-12T10:19:32.288Z,10.60
2023-05-12T10:20:32.300Z,11.50
2023-05-12T10:21:32.366Z,10.60
2023-05-12T10:22:32.262Z,12.80
2023-05-12T10:23:32.284Z,12.40
2023-05-12T10:24:32.238Z,12.40
2023-05-12T10:25:32.269Z,12.70
2023-05-12T10:26:32.306Z,10.90
2023-05-12T10:27:32.227Z,11.10
2023-05-12T10:28:32.203Z,10.60
2023-05-12T10:29:32.216Z,10.90
2023-05-12T10:30:32.228Z,10.10
2023-05-12T10:31:32.208Z,10.80
2023-05-12T10:32:32.233Z,10.80
2023-05-12T10:33:32.238Z,11.40
2023-05-12T10:34:32.205Z,10.70
2023-05-12T10:35:32.174Z,11.60
2023-05-12T10:36:32.160Z,12.30
2023-05-12T10:37:32.183Z,10.70
2023-05-12T10:38:32.113Z,11.80
2023-05-12T10:39:32.160Z,11.60
2023-05-12T10:40:32.112Z,12.10
2023-05-12T10:41:32.095Z,10.90
2023-05-12T10:42:32.086Z,11.70
2023-05-12T10:43:32.082Z,11.70
2023-05-12T10:44:32.105Z,11.00
2023-05-12T10:45:32.058Z,11.90
2023-05-12T10:46:32.138Z,13.20
2023-05-12T10:47:32.720Z,11.30
2023-05-12T10:48:32.155Z,12.00
2023-05-12T10:49:32.180Z,11.40
2023-05-12T10:50:32.026Z,11.60
2023-05-12T10:51:32.008Z,12.00
2023-05-12T10:52:31.992Z,9.90
2023-05-12T10:53:45.239Z,10.70
2023-05-12T10:54:31.977Z,11.90
2023-05-12T10:55:32.242Z,11.50
2023-05-12T10:56:32.223Z,13.20
2023-05-12T10:57:32.420Z,11.40
2023-05-12T10:58:32.283Z,10.40
2023-05-12T10:59:32.304Z,10.80
2023-05-12T11:00:32.217Z,10.50
2023-05-12T11:01:32.430Z,11.80
2023-05-12T11:02:32.756Z,11.50
2023-05-12T11:03:32.231Z,11.50
2023-05-12T11:04:32.009Z,11.70
2023-05-12T11:05:32.143Z,11.60
2023-05-12T11:06:32.665Z,12.60
2023-05-12T11:07:32.947Z,11.20
2023-05-12T11:08:32.493Z,11.70
2023-05-12T11:09:31.910Z,12.30
2023-05-12T11:10:33.335Z,13.20
2023-05-12T11:11:32.348Z,12.60
2023-05-12T11:12:31.869Z,13.10
2023-05-12T11:13:31.800Z,11.50
2023-05-12T11:14:31.801Z,11.80
2023-05-12T11:15:31.792Z,12.40
2023-05-12T11:16:31.887Z,14.60
2023-05-12T11:17:32.104Z,11.70
2023-05-12T11:18:31.834Z,11.30
2023-05-12T11:19:31.766Z,12.90
2023-05-12T11:20:31.750Z,12.20
2023-05-12T11:21:31.756Z,11.50
2023-05-12T11:22:31.719Z,12.90
2023-05-12T11:23:31.716Z,12.90
2023-05-12T11:24:31.717Z,12.30
2023-05-12T11:25:31.722Z,12.20
2023-05-12T11:26:31.733Z,11.60
2023-05-12T11:27:31.817Z,13.80
2023-05-12T11:28:31.670Z,11.60
2023-05-12T11:29:31.688Z,12.00
2023-05-12T11:30:31.714Z,12.10
2023-05-12T11:31:31.777Z,12.50
2023-05-12T11:32:31.712Z,12.00
2023-05-12T11:33:31.631Z,12.70
2023-05-12T11:34:31.622Z,10.30
2023-05-12T11:35:31.657Z,12.40
2023-05-12T11:36:31.610Z,12.70
2023-05-12T11:37:31.582Z,12.70
2023-05-12T11:38:31.589Z,11.20
2023-05-12T11:39:31.636Z,12.40
2023-05-12T11:40:31.611Z,11.50
2023-05-12T11:41:31.580Z,14.10
2023-05-12T11:42:31.563Z,12.60
2023-05-12T11:43:31.552Z,12.60
2023-05-12T11:44:31.566Z,11.00
2023-05-12T11:45:31.549Z,11.20
2023-05-12T11:46:37.726Z,12.00
2023-05-12T11:47:31.737Z,13.90
2023-05-12T11:48:31.691Z,13.10
2023-05-12T11:49:31.559Z,12.20
2023-05-12T11:50:31.532Z,13.50
2023-05-12T11:51:31.491Z,11.10
2023-05-12T11:52:31.475Z,12.80
2023-05-12T11:53:31.499Z,11.70
2023-05-12T11:54:31.532Z,10.20
2023-05-12T11:55:31.458Z,12.90
2023-05-12T11:56:31.511Z,14.10
2023-05-12T11:57:31.753Z,11.70
2023-05-12T11:58:31.675Z,10.90
2023-05-12T11:59:31.500Z,13.00
2023-05-12T12:00:31.480Z,12.60
2023-05-12T12:01:31.417Z,12.30
2023-05-12T12:02:31.519Z,11.80
2023-05-12T12:03:31.518Z,13.50
2023-05-12T12:04:31.470Z,11.00
2023-05-12T12:05:31.433Z,11.40
2023-05-12T12:06:31.350Z,10.60
2023-05-12T12:07:31.377Z,13.20
2023-05-12T12:08:31.381Z,11.00
2023-05-12T12:09:31.320Z,10.50
2023-05-12T12:10:31.365Z,12.10
2023-05-12T12:11:31.310Z,12.00
2023-05-12T12:12:31.309Z,12.80
2023-05-12T12:13:31.494Z,13.40
2023-05-12T12:14:31.718Z,12.70
2023-05-12T12:15:31.283Z,10.30
2023-05-12T12:16:31.536Z,13.20
2023-05-12T12:17:31.417Z,13.10
2023-05-12T12:18:31.276Z,11.80
2023-05-12T12:19:31.234Z,10.80
2023-05-12T12:20:31.228Z,13.80
2023-05-12T12:21:31.408Z,11.80
2023-05-12T12:22:31.204Z,11.40
2023-05-12T12:23:40.481Z,11.20
2023-05-12T12:24:31.164Z,12.70
2023-05-12T12:25:31.147Z,13.10
2023-05-12T12:26:31.161Z,11.10
2023-05-12T12:27:31.148Z,10.40
2023-05-12T12:28:31.125Z,10.30
2023-05-12T12:29:31.103Z,10.80
2023-05-12T12:30:31.116Z,10.70
2023-05-12T12:31:31.132Z,10.70
2023-05-12T12:32:31.159Z,12.00
2023-05-12T12:33:31.049Z,10.70
2023-05-12T12:34:31.086Z,9.30
2023-05-12T12:35:31.049Z,9.80
2023-05-12T12:36:31.059Z,11.40
2023-05-12T12:37:31.060Z,11.30
2023-05-12T12:38:31.003Z,10.40
2023-05-12T12:39:31.000Z,12.30
2023-05-12T12:40:31.047Z,10.10
2023-05-12T12:41:31.000Z,11.90
2023-05-12T12:42:30.970Z,10.50
2023-05-12T12:43:30.969Z,13.00
2023-05-12T12:44:30.973Z,12.80